ANZ517 NZAA-NZCH
Flight info
| Callsign | ANZ517 |
|---|---|
| Flight time | 1h 10m |
| Altitude | 36000 |
| Route | IGBAT H384 NP H252 NS Y288 IPRAK |
| Aircraft | A320/M-SDE3FGHIRWY/LB1 |
Departure
| Time | 2026-05-06 22:37 |
|---|---|
| Airport | Auckland International Airport (NZAA) |
Arrival
| Time | 2026-05-06 23:47 |
|---|---|
| Airport | Christchurch International Airport (NZCH) |
| Time | Latitude | Longitude | Altitude | Speed | Heading |
|---|---|---|---|---|---|
| 2026-05-06 22:01 | -37.00725 | 174.79053 | 26 ft | 0 kts | 342° |
| 2026-05-06 22:22 | -37.00730 | 174.79055 | 25 ft | 4 kts | 341° |
| 2026-05-06 22:23 | -37.00753 | 174.79066 | 28 ft | 2 kts | 342° |
| 2026-05-06 22:23 | -37.00772 | 174.79076 | 26 ft | 4 kts | 321° |
| 2026-05-06 22:23 | -37.00785 | 174.79098 | 29 ft | 4 kts | 277° |
| 2026-05-06 22:23 | -37.00784 | 174.79128 | 29 ft | 4 kts | 253° |
| 2026-05-06 22:24 | -37.00781 | 174.79142 | 29 ft | 0 kts | 251° |
| 2026-05-06 22:27 | -37.00785 | 174.79129 | 28 ft | 5 kts | 245° |
| 2026-05-06 22:28 | -37.00820 | 174.79102 | 28 ft | 8 kts | 179° |
| 2026-05-06 22:28 | -37.00878 | 174.79103 | 26 ft | 9 kts | 221° |
| 2026-05-06 22:28 | -37.00901 | 174.79028 | 25 ft | 10 kts | 257° |
| 2026-05-06 22:28 | -37.00923 | 174.78936 | 25 ft | 12 kts | 252° |
| 2026-05-06 22:29 | -37.00954 | 174.78835 | 28 ft | 13 kts | 246° |
| 2026-05-06 22:29 | -37.00986 | 174.78721 | 27 ft | 15 kts | 250° |
| 2026-05-06 22:29 | -37.01021 | 174.78596 | 25 ft | 16 kts | 251° |
| 2026-05-06 22:29 | -37.01059 | 174.78457 | 27 ft | 18 kts | 251° |
| 2026-05-06 22:30 | -37.01101 | 174.78307 | 28 ft | 19 kts | 251° |
| 2026-05-06 22:30 | -37.01146 | 174.78142 | 26 ft | 21 kts | 251° |
| 2026-05-06 22:30 | -37.01194 | 174.77966 | 26 ft | 22 kts | 251° |
| 2026-05-06 22:30 | -37.01239 | 174.77804 | 27 ft | 19 kts | 251° |
| 2026-05-06 22:31 | -37.01284 | 174.77643 | 27 ft | 20 kts | 251° |
| 2026-05-06 22:31 | -37.01332 | 174.77471 | 27 ft | 22 kts | 251° |
| 2026-05-06 22:31 | -37.01381 | 174.77295 | 26 ft | 21 kts | 252° |
| 2026-05-06 22:31 | -37.01421 | 174.77149 | 26 ft | 13 kts | 252° |
| 2026-05-06 22:32 | -37.01489 | 174.77101 | 30 ft | 10 kts | 188° |
| 2026-05-06 22:32 | -37.01500 | 174.77098 | 28 ft | 0 kts | 189° |
| 2026-05-06 22:35 | -37.01506 | 174.77097 | 28 ft | 5 kts | 189° |
| 2026-05-06 22:35 | -37.01583 | 174.77083 | 27 ft | 11 kts | 175° |
| 2026-05-06 22:35 | -37.01615 | 174.77144 | 26 ft | 0 kts | 71° |
| 2026-05-06 22:36 | -37.01603 | 174.77186 | 26 ft | 26 kts | 70° |
| 2026-05-06 22:36 | -37.01467 | 174.77671 | 27 ft | 90 kts | 71° |
| 2026-05-06 22:36 | -37.01208 | 174.78611 | 31 ft | 136 kts | 71° |
| 2026-05-06 22:36 | -37.00886 | 174.79800 | 334 ft | 151 kts | 69° |
| 2026-05-06 22:37 | -37.00550 | 174.81095 | 857 ft | 161 kts | 69° |
| 2026-05-06 22:37 | -37.00186 | 174.82433 | 1401 ft | 167 kts | 67° |
| 2026-05-06 22:37 | -36.99812 | 174.83818 | 2035 ft | 169 kts | 69° |
| 2026-05-06 22:37 | -36.99420 | 174.85291 | 2381 ft | 189 kts | 66° |
| 2026-05-06 22:38 | -36.98953 | 174.86938 | 2619 ft | 215 kts | 66° |
| 2026-05-06 22:38 | -36.98401 | 174.88799 | 2939 ft | 242 kts | 65° |
| 2026-05-06 22:38 | -36.97807 | 174.90848 | 3587 ft | 255 kts | 67° |
| 2026-05-06 22:38 | -36.97216 | 174.92945 | 4518 ft | 256 kts | 67° |
| 2026-05-06 22:39 | -36.96631 | 174.95059 | 5431 ft | 258 kts | 67° |
| 2026-05-06 22:39 | -36.96039 | 174.97197 | 6287 ft | 263 kts | 68° |
| 2026-05-06 22:39 | -36.95458 | 174.99389 | 7054 ft | 269 kts | 73° |
| 2026-05-06 22:39 | -36.95414 | 175.01755 | 7739 ft | 284 kts | 99° |
| 2026-05-06 22:40 | -36.96301 | 175.04008 | 8438 ft | 297 kts | 129° |
| 2026-05-06 22:40 | -36.97986 | 175.05511 | 9153 ft | 305 kts | 158° |
| 2026-05-06 22:40 | -36.99995 | 175.06420 | 9907 ft | 310 kts | 161° |
| 2026-05-06 22:40 | -37.02091 | 175.07248 | 10432 ft | 323 kts | 168° |
| 2026-05-06 22:41 | -37.06026 | 175.07386 | 10845 ft | 353 kts | 192° |
| 2026-05-06 22:41 | -37.08391 | 175.06559 | 11429 ft | 356 kts | 204° |
| 2026-05-06 22:41 | -37.10556 | 175.05124 | 12107 ft | 355 kts | 217° |
| 2026-05-06 22:42 | -37.12590 | 175.03359 | 12782 ft | 358 kts | 218° |
| 2026-05-06 22:42 | -37.14642 | 175.01558 | 13460 ft | 360 kts | 218° |
| 2026-05-06 22:42 | -37.16694 | 174.99748 | 14121 ft | 363 kts | 218° |
| 2026-05-06 22:42 | -37.18792 | 174.97896 | 14715 ft | 366 kts | 218° |
| 2026-05-06 22:43 | -37.20879 | 174.96055 | 15293 ft | 368 kts | 218° |
| 2026-05-06 22:43 | -37.22989 | 174.94191 | 15878 ft | 371 kts | 218° |
| 2026-05-06 22:43 | -37.25093 | 174.92331 | 16445 ft | 373 kts | 218° |
| 2026-05-06 22:43 | -37.27203 | 174.90467 | 17022 ft | 376 kts | 218° |
| 2026-05-06 22:44 | -37.29347 | 174.88570 | 17610 ft | 378 kts | 218° |
| 2026-05-06 22:44 | -37.31503 | 174.86661 | 18175 ft | 381 kts | 218° |
| 2026-05-06 22:44 | -37.33680 | 174.84738 | 18731 ft | 383 kts | 218° |
| 2026-05-06 22:44 | -37.35864 | 174.82810 | 19229 ft | 386 kts | 218° |
| 2026-05-06 22:45 | -37.38077 | 174.80852 | 19723 ft | 390 kts | 218° |
| 2026-05-06 22:45 | -37.40300 | 174.78882 | 20198 ft | 393 kts | 218° |
| 2026-05-06 22:45 | -37.42537 | 174.76894 | 20703 ft | 396 kts | 218° |
| 2026-05-06 22:45 | -37.44801 | 174.74883 | 21173 ft | 398 kts | 218° |
| 2026-05-06 22:46 | -37.47076 | 174.72863 | 21617 ft | 401 kts | 218° |
| 2026-05-06 22:46 | -37.49365 | 174.70831 | 22077 ft | 404 kts | 218° |
| 2026-05-06 22:46 | -37.51674 | 174.68779 | 22516 ft | 407 kts | 218° |
| 2026-05-06 22:46 | -37.53983 | 174.66717 | 22952 ft | 410 kts | 218° |
| 2026-05-06 22:47 | -37.56392 | 174.64746 | 23374 ft | 415 kts | 211° |
| 2026-05-06 22:47 | -37.59074 | 174.63310 | 23808 ft | 422 kts | 199° |
| 2026-05-06 22:47 | -37.61932 | 174.62379 | 24173 ft | 426 kts | 196° |
| 2026-05-06 22:47 | -37.64817 | 174.61490 | 24547 ft | 428 kts | 196° |
| 2026-05-06 22:48 | -37.67717 | 174.60597 | 24929 ft | 430 kts | 196° |
| 2026-05-06 22:48 | -37.70585 | 174.59711 | 25307 ft | 431 kts | 196° |
| 2026-05-06 22:48 | -37.73541 | 174.58792 | 25695 ft | 433 kts | 196° |
| 2026-05-06 22:48 | -37.76468 | 174.57875 | 26075 ft | 434 kts | 197° |
| 2026-05-06 22:49 | -37.79365 | 174.56963 | 26447 ft | 436 kts | 197° |
| 2026-05-06 22:49 | -37.82308 | 174.56035 | 26816 ft | 437 kts | 197° |
| 2026-05-06 22:49 | -37.85269 | 174.55104 | 27174 ft | 439 kts | 197° |
| 2026-05-06 22:49 | -37.88274 | 174.54160 | 27524 ft | 441 kts | 197° |
| 2026-05-06 22:50 | -37.91267 | 174.53223 | 27885 ft | 443 kts | 197° |
| 2026-05-06 22:50 | -37.94226 | 174.52301 | 28243 ft | 445 kts | 197° |
| 2026-05-06 22:50 | -37.97229 | 174.51362 | 28601 ft | 447 kts | 197° |
| 2026-05-06 22:50 | -38.00257 | 174.50410 | 28966 ft | 448 kts | 197° |
| 2026-05-06 22:51 | -38.03288 | 174.49451 | 29314 ft | 450 kts | 197° |
| 2026-05-06 22:51 | -38.06329 | 174.48489 | 29688 ft | 452 kts | 197° |
| 2026-05-06 22:51 | -38.09392 | 174.47526 | 30003 ft | 454 kts | 197° |
| 2026-05-06 22:51 | -38.12467 | 174.46560 | 30385 ft | 455 kts | 197° |
| 2026-05-06 22:52 | -38.15534 | 174.45597 | 30813 ft | 453 kts | 197° |
| 2026-05-06 22:52 | -38.18586 | 174.44637 | 31244 ft | 451 kts | 197° |
| 2026-05-06 22:52 | -38.21625 | 174.43679 | 31684 ft | 449 kts | 197° |
| 2026-05-06 22:52 | -38.24651 | 174.42725 | 32123 ft | 447 kts | 197° |
| 2026-05-06 22:53 | -38.27659 | 174.41775 | 32562 ft | 445 kts | 197° |
| 2026-05-06 22:53 | -38.30661 | 174.40826 | 33012 ft | 443 kts | 197° |
| 2026-05-06 22:53 | -38.33663 | 174.39872 | 33462 ft | 441 kts | 197° |
| 2026-05-06 22:53 | -38.36637 | 174.38924 | 33915 ft | 439 kts | 197° |
| 2026-05-06 22:54 | -38.39591 | 174.37983 | 34357 ft | 438 kts | 197° |
| 2026-05-06 22:54 | -38.42548 | 174.37044 | 34722 ft | 436 kts | 197° |
| 2026-05-06 22:54 | -38.45488 | 174.36112 | 35047 ft | 435 kts | 197° |
| 2026-05-06 22:54 | -38.48424 | 174.35179 | 35359 ft | 434 kts | 197° |
| 2026-05-06 22:55 | -38.51352 | 174.34246 | 35672 ft | 434 kts | 197° |
| 2026-05-06 22:55 | -38.54276 | 174.33311 | 35980 ft | 433 kts | 197° |
| 2026-05-06 22:55 | -38.57196 | 174.32376 | 36277 ft | 432 kts | 197° |
| 2026-05-06 22:55 | -38.60112 | 174.31443 | 36563 ft | 432 kts | 197° |
| 2026-05-06 22:56 | -38.63024 | 174.30517 | 36848 ft | 431 kts | 197° |
| 2026-05-06 22:56 | -38.65940 | 174.29588 | 37122 ft | 431 kts | 197° |
| 2026-05-06 22:56 | -38.68843 | 174.28659 | 37280 ft | 432 kts | 197° |
| 2026-05-06 22:57 | -38.74736 | 174.26770 | 37287 ft | 440 kts | 197° |
| 2026-05-06 22:57 | -38.80686 | 174.24857 | 37284 ft | 441 kts | 198° |
| 2026-05-06 22:58 | -38.86649 | 174.22936 | 37280 ft | 442 kts | 198° |
| 2026-05-06 22:58 | -38.92606 | 174.21014 | 37284 ft | 442 kts | 198° |
| 2026-05-06 22:59 | -38.98563 | 174.19092 | 37292 ft | 442 kts | 198° |
| 2026-05-06 22:59 | -39.04493 | 174.17022 | 37294 ft | 441 kts | 200° |
| 2026-05-06 23:00 | -39.10332 | 174.14598 | 37285 ft | 441 kts | 202° |
| 2026-05-06 23:00 | -39.16145 | 174.12105 | 37287 ft | 441 kts | 202° |
| 2026-05-06 23:01 | -39.21983 | 174.09687 | 37296 ft | 441 kts | 204° |
| 2026-05-06 23:01 | -39.27832 | 174.07311 | 37284 ft | 440 kts | 202° |
| 2026-05-06 23:02 | -39.33676 | 174.04929 | 37266 ft | 440 kts | 203° |
| 2026-05-06 23:02 | -39.39465 | 174.02547 | 37271 ft | 439 kts | 204° |
| 2026-05-06 23:03 | -39.45291 | 174.00139 | 37279 ft | 440 kts | 201° |
| 2026-05-06 23:03 | -39.51120 | 173.97730 | 37282 ft | 440 kts | 201° |
| 2026-05-06 23:04 | -39.56987 | 173.95306 | 37252 ft | 440 kts | 201° |
| 2026-05-06 23:04 | -39.62776 | 173.92912 | 37254 ft | 440 kts | 201° |
| 2026-05-06 23:05 | -39.68606 | 173.90497 | 37267 ft | 440 kts | 202° |
| 2026-05-06 23:05 | -39.74433 | 173.88075 | 37243 ft | 440 kts | 202° |
| 2026-05-06 23:06 | -39.80279 | 173.85643 | 37235 ft | 441 kts | 202° |
| 2026-05-06 23:06 | -39.86125 | 173.83210 | 37232 ft | 441 kts | 202° |
| 2026-05-06 23:07 | -39.91978 | 173.80761 | 37240 ft | 442 kts | 202° |
| 2026-05-06 23:07 | -39.97831 | 173.78298 | 37233 ft | 442 kts | 202° |
| 2026-05-06 23:08 | -40.03685 | 173.75846 | 37233 ft | 442 kts | 202° |
| 2026-05-06 23:08 | -40.09543 | 173.73390 | 37250 ft | 442 kts | 202° |
| 2026-05-06 23:09 | -40.15395 | 173.70927 | 37238 ft | 442 kts | 202° |
| 2026-05-06 23:09 | -40.21245 | 173.68454 | 37233 ft | 442 kts | 203° |
| 2026-05-06 23:10 | -40.27092 | 173.65984 | 37231 ft | 442 kts | 202° |
| 2026-05-06 23:10 | -40.32945 | 173.63517 | 37233 ft | 442 kts | 203° |
| 2026-05-06 23:11 | -40.38793 | 173.61036 | 37231 ft | 441 kts | 203° |
| 2026-05-06 23:11 | -40.44631 | 173.58554 | 37226 ft | 441 kts | 203° |
| 2026-05-06 23:12 | -40.50465 | 173.56071 | 37223 ft | 441 kts | 203° |
| 2026-05-06 23:12 | -40.56305 | 173.53596 | 37220 ft | 440 kts | 203° |
| 2026-05-06 23:13 | -40.62135 | 173.51107 | 37231 ft | 441 kts | 203° |
| 2026-05-06 23:13 | -40.67972 | 173.48613 | 37217 ft | 441 kts | 203° |
| 2026-05-06 23:14 | -40.73815 | 173.46114 | 37231 ft | 441 kts | 204° |
| 2026-05-06 23:14 | -40.79655 | 173.43602 | 37221 ft | 441 kts | 204° |
| 2026-05-06 23:15 | -40.85488 | 173.41088 | 37213 ft | 441 kts | 204° |
| 2026-05-06 23:15 | -40.91317 | 173.38577 | 37205 ft | 440 kts | 204° |
| 2026-05-06 23:16 | -40.97144 | 173.36062 | 37219 ft | 441 kts | 204° |
| 2026-05-06 23:16 | -41.02979 | 173.33536 | 37195 ft | 441 kts | 204° |
| 2026-05-06 23:17 | -41.08817 | 173.31013 | 37188 ft | 442 kts | 204° |
| 2026-05-06 23:17 | -41.14671 | 173.28473 | 37184 ft | 442 kts | 204° |
| 2026-05-06 23:18 | -41.20479 | 173.25949 | 37186 ft | 443 kts | 204° |
| 2026-05-06 23:18 | -41.26366 | 173.23383 | 37181 ft | 443 kts | 204° |
| 2026-05-06 23:19 | -41.32198 | 173.20861 | 37172 ft | 444 kts | 203° |
| 2026-05-06 23:19 | -41.38165 | 173.18534 | 37170 ft | 445 kts | 201° |
| 2026-05-06 23:20 | -41.44132 | 173.16332 | 37173 ft | 445 kts | 201° |
| 2026-05-06 23:20 | -41.50045 | 173.14116 | 37177 ft | 444 kts | 202° |
| 2026-05-06 23:21 | -41.55993 | 173.11826 | 37164 ft | 445 kts | 203° |
| 2026-05-06 23:21 | -41.61935 | 173.09514 | 37160 ft | 445 kts | 202° |
| 2026-05-06 23:22 | -41.67888 | 173.07209 | 37142 ft | 445 kts | 202° |
| 2026-05-06 23:22 | -41.73857 | 173.04901 | 36774 ft | 447 kts | 202° |
| 2026-05-06 23:22 | -41.76835 | 173.03744 | 36521 ft | 447 kts | 203° |
| 2026-05-06 23:23 | -41.79834 | 173.02579 | 36267 ft | 447 kts | 202° |
| 2026-05-06 23:23 | -41.82820 | 173.01420 | 35989 ft | 448 kts | 203° |
| 2026-05-06 23:23 | -41.85829 | 173.00248 | 35744 ft | 450 kts | 202° |
| 2026-05-06 23:23 | -41.88829 | 172.99074 | 35470 ft | 451 kts | 203° |
| 2026-05-06 23:24 | -41.91857 | 172.97885 | 34704 ft | 455 kts | 203° |
| 2026-05-06 23:24 | -41.93870 | 172.97094 | 34213 ft | 458 kts | 203° |
| 2026-05-06 23:24 | -41.96915 | 172.95907 | 33691 ft | 455 kts | 203° |
| 2026-05-06 23:24 | -41.99958 | 172.94732 | 33164 ft | 452 kts | 202° |
| 2026-05-06 23:25 | -42.02964 | 172.93571 | 32644 ft | 449 kts | 202° |
| 2026-05-06 23:25 | -42.05961 | 172.92406 | 32126 ft | 445 kts | 202° |
| 2026-05-06 23:25 | -42.08922 | 172.91249 | 31592 ft | 443 kts | 202° |
| 2026-05-06 23:25 | -42.11882 | 172.90084 | 31080 ft | 441 kts | 202° |
| 2026-05-06 23:26 | -42.14810 | 172.88926 | 30550 ft | 439 kts | 201° |
| 2026-05-06 23:26 | -42.17744 | 172.87767 | 30027 ft | 438 kts | 201° |
| 2026-05-06 23:26 | -42.20655 | 172.86620 | 29498 ft | 436 kts | 201° |
| 2026-05-06 23:26 | -42.23562 | 172.85471 | 28989 ft | 432 kts | 201° |
| 2026-05-06 23:27 | -42.26434 | 172.84343 | 28495 ft | 430 kts | 200° |
| 2026-05-06 23:27 | -42.29297 | 172.83218 | 28021 ft | 426 kts | 200° |
| 2026-05-06 23:27 | -42.32143 | 172.82096 | 27532 ft | 424 kts | 201° |
| 2026-05-06 23:27 | -42.34957 | 172.80983 | 27065 ft | 421 kts | 200° |
| 2026-05-06 23:28 | -42.37762 | 172.79872 | 26622 ft | 419 kts | 201° |
| 2026-05-06 23:28 | -42.40542 | 172.78769 | 26172 ft | 418 kts | 200° |
| 2026-05-06 23:28 | -42.43333 | 172.77661 | 25714 ft | 417 kts | 200° |
| 2026-05-06 23:28 | -42.46113 | 172.76556 | 25270 ft | 415 kts | 200° |
| 2026-05-06 23:29 | -42.48890 | 172.75449 | 24815 ft | 414 kts | 200° |
| 2026-05-06 23:29 | -42.51611 | 172.74364 | 24375 ft | 412 kts | 200° |
| 2026-05-06 23:29 | -42.54348 | 172.73279 | 23926 ft | 410 kts | 200° |
| 2026-05-06 23:29 | -42.57083 | 172.72194 | 23438 ft | 409 kts | 200° |
| 2026-05-06 23:30 | -42.59809 | 172.71107 | 22940 ft | 407 kts | 200° |
| 2026-05-06 23:30 | -42.62530 | 172.70022 | 22462 ft | 405 kts | 200° |
| 2026-05-06 23:30 | -42.65225 | 172.68946 | 21969 ft | 402 kts | 200° |
| 2026-05-06 23:30 | -42.67900 | 172.67878 | 21490 ft | 400 kts | 200° |
| 2026-05-06 23:31 | -42.70553 | 172.66818 | 21011 ft | 398 kts | 200° |
| 2026-05-06 23:31 | -42.73199 | 172.65762 | 20524 ft | 395 kts | 200° |
| 2026-05-06 23:31 | -42.75836 | 172.64705 | 20044 ft | 394 kts | 200° |
| 2026-05-06 23:31 | -42.78461 | 172.63649 | 19614 ft | 391 kts | 201° |
| 2026-05-06 23:32 | -42.81008 | 172.62628 | 19327 ft | 375 kts | 201° |
| 2026-05-06 23:32 | -42.83484 | 172.61636 | 18720 ft | 367 kts | 201° |
| 2026-05-06 23:32 | -42.85920 | 172.60656 | 18033 ft | 362 kts | 201° |
| 2026-05-06 23:32 | -42.88311 | 172.59686 | 17282 ft | 357 kts | 201° |
| 2026-05-06 23:33 | -42.90683 | 172.58722 | 16559 ft | 353 kts | 202° |
| 2026-05-06 23:33 | -42.92984 | 172.57787 | 16169 ft | 339 kts | 202° |
| 2026-05-06 23:33 | -42.95224 | 172.56878 | 15645 ft | 332 kts | 202° |
| 2026-05-06 23:33 | -42.97417 | 172.55987 | 15068 ft | 328 kts | 203° |
| 2026-05-06 23:34 | -42.99595 | 172.55096 | 14499 ft | 325 kts | 203° |
| 2026-05-06 23:34 | -43.01751 | 172.54212 | 13903 ft | 323 kts | 203° |
| 2026-05-06 23:34 | -43.03894 | 172.53335 | 13267 ft | 321 kts | 203° |
| 2026-05-06 23:34 | -43.06036 | 172.52459 | 12635 ft | 320 kts | 204° |
| 2026-05-06 23:35 | -43.08157 | 172.51590 | 12036 ft | 318 kts | 204° |
| 2026-05-06 23:35 | -43.10272 | 172.50722 | 11435 ft | 316 kts | 204° |
| 2026-05-06 23:35 | -43.12376 | 172.49858 | 10845 ft | 318 kts | 204° |
| 2026-05-06 23:35 | -43.14494 | 172.48990 | 10564 ft | 317 kts | 205° |
| 2026-05-06 23:36 | -43.16612 | 172.48116 | 10109 ft | 321 kts | 205° |
| 2026-05-06 23:36 | -43.18764 | 172.47227 | 9650 ft | 325 kts | 204° |
| 2026-05-06 23:36 | -43.20931 | 172.46335 | 9154 ft | 328 kts | 204° |
| 2026-05-06 23:36 | -43.23129 | 172.45430 | 8661 ft | 330 kts | 204° |
| 2026-05-06 23:37 | -43.25340 | 172.44521 | 8177 ft | 332 kts | 204° |
| 2026-05-06 23:37 | -43.27521 | 172.43634 | 7695 ft | 323 kts | 204° |
| 2026-05-06 23:37 | -43.29636 | 172.42777 | 7424 ft | 306 kts | 205° |
| 2026-05-06 23:37 | -43.31584 | 172.41989 | 7308 ft | 291 kts | 205° |
| 2026-05-06 23:38 | -43.33517 | 172.41197 | 7198 ft | 283 kts | 205° |
| 2026-05-06 23:38 | -43.35352 | 172.40440 | 7076 ft | 275 kts | 206° |
| 2026-05-06 23:38 | -43.37145 | 172.39698 | 6844 ft | 265 kts | 206° |
| 2026-05-06 23:38 | -43.38916 | 172.38962 | 6531 ft | 262 kts | 206° |
| 2026-05-06 23:39 | -43.40685 | 172.38410 | 6225 ft | 267 kts | 194° |
| 2026-05-06 23:39 | -43.42531 | 172.38111 | 5887 ft | 266 kts | 194° |
| 2026-05-06 23:39 | -43.44361 | 172.37819 | 5556 ft | 263 kts | 194° |
| 2026-05-06 23:39 | -43.46166 | 172.37530 | 5240 ft | 262 kts | 193° |
| 2026-05-06 23:40 | -43.47985 | 172.37236 | 4918 ft | 263 kts | 192° |
| 2026-05-06 23:40 | -43.49807 | 172.36939 | 4573 ft | 266 kts | 192° |
| 2026-05-06 23:40 | -43.51663 | 172.36637 | 4223 ft | 267 kts | 192° |
| 2026-05-06 23:40 | -43.53511 | 172.36339 | 3866 ft | 269 kts | 191° |
| 2026-05-06 23:41 | -43.55367 | 172.36039 | 3579 ft | 267 kts | 191° |
| 2026-05-06 23:41 | -43.57179 | 172.35748 | 3391 ft | 256 kts | 190° |
| 2026-05-06 23:41 | -43.58944 | 172.35470 | 3223 ft | 257 kts | 188° |
| 2026-05-06 23:41 | -43.60681 | 172.35833 | 3042 ft | 250 kts | 150° |
| 2026-05-06 23:42 | -43.61797 | 172.37427 | 3006 ft | 217 kts | 103° |
| 2026-05-06 23:42 | -43.61844 | 172.39208 | 2981 ft | 167 kts | 52° |
| 2026-05-06 23:42 | -43.61108 | 172.40025 | 2882 ft | 128 kts | 3° |
| 2026-05-06 23:42 | -43.60203 | 172.40209 | 2738 ft | 139 kts | 17° |
| 2026-05-06 23:43 | -43.59479 | 172.41167 | 2583 ft | 143 kts | 37° |
| 2026-05-06 23:43 | -43.58730 | 172.41937 | 2401 ft | 134 kts | 27° |
| 2026-05-06 23:43 | -43.57981 | 172.42739 | 2211 ft | 137 kts | 30° |
| 2026-05-06 23:43 | -43.57231 | 172.43580 | 2024 ft | 137 kts | 32° |
| 2026-05-06 23:44 | -43.56508 | 172.44406 | 1853 ft | 135 kts | 32° |
| 2026-05-06 23:44 | -43.55790 | 172.45231 | 1673 ft | 134 kts | 32° |
| 2026-05-06 23:44 | -43.55078 | 172.46055 | 1488 ft | 133 kts | 33° |
| 2026-05-06 23:44 | -43.54375 | 172.46868 | 1334 ft | 133 kts | 34° |
| 2026-05-06 23:45 | -43.53667 | 172.47690 | 1153 ft | 133 kts | 35° |
| 2026-05-06 23:45 | -43.52956 | 172.48503 | 961 ft | 132 kts | 35° |
| 2026-05-06 23:45 | -43.52248 | 172.49329 | 745 ft | 134 kts | 38° |
| 2026-05-06 23:45 | -43.51527 | 172.50170 | 561 ft | 135 kts | 40° |
| 2026-05-06 23:46 | -43.50793 | 172.51008 | 388 ft | 134 kts | 43° |
| 2026-05-06 23:46 | -43.50093 | 172.51823 | 244 ft | 134 kts | 43° |
| 2026-05-06 23:46 | -43.49400 | 172.52626 | 141 ft | 132 kts | 42° |
| 2026-05-06 23:46 | -43.48841 | 172.53291 | 113 ft | 68 kts | 39° |
| 2026-05-06 23:47 | -43.48647 | 172.53508 | 113 ft | 29 kts | 40° |
| 2026-05-06 23:47 | -43.48505 | 172.53702 | 107 ft | 19 kts | 75° |
| 2026-05-06 23:47 | -43.48460 | 172.53903 | 104 ft | 23 kts | 71° |
| 2026-05-06 23:47 | -43.48459 | 172.53946 | 107 ft | 3 kts | 109° |
| 2026-05-06 23:48 | -43.48463 | 172.53960 | 107 ft | 2 kts | 115° |
| 2026-05-06 23:48 | -43.48480 | 172.54000 | 108 ft | 7 kts | 125° |
| 2026-05-06 23:48 | -43.48519 | 172.53985 | 108 ft | 7 kts | 227° |
| 2026-05-06 23:48 | -43.48561 | 172.53929 | 109 ft | 9 kts | 220° |
| 2026-05-06 23:49 | -43.48615 | 172.53868 | 109 ft | 11 kts | 219° |
| 2026-05-06 23:49 | -43.48680 | 172.53794 | 107 ft | 13 kts | 221° |
| 2026-05-06 23:49 | -43.48755 | 172.53706 | 108 ft | 14 kts | 220° |
| 2026-05-06 23:49 | -43.48776 | 172.53682 | 109 ft | 4 kts | 220° |
| 2026-05-06 23:50 | -43.48806 | 172.53650 | 109 ft | 7 kts | 216° |
| 2026-05-06 23:50 | -43.48871 | 172.53713 | 107 ft | 6 kts | 130° |
| 2026-05-06 23:50 | -43.48890 | 172.53744 | 108 ft | 3 kts | 130° |
| 2026-05-06 23:51 | -43.48896 | 172.53754 | 107 ft | 0 kts | 129° |